Terminal Aerodrome Forecast
Issued by NWS

Current Version | Previous Version | Text Only | Print | Product List | Glossary On
Versions: 1 2 3 4 5 6 7 8 9 10 11 12 13 14 15 16 17 18
217
FTUS42 KTAE 241736
TAFVLD
TAF
KVLD 241736Z 2418/2518 14012KT P6SM BKN040
     FM250300 12004KT P6SM FEW040
      TEMPO 2510/2513 5SM BR SCT004
     FM251500 16010KT P6SM SCT035=

USA.gov is the U.S. government's official web portal to all federal, state and local government web resources and services.